sensor_id;sensor_type;location;lat;lon;timestamp;temperature;humidity
3912;DHT22;1971;51.778;10.330;2022-07-23T00:00:38;14.20;97.40
3912;DHT22;1971;51.778;10.330;2022-07-23T00:03:15;14.10;99.90
3912;DHT22;1971;51.778;10.330;2022-07-23T00:05:52;14.00;99.90
3912;DHT22;1971;51.778;10.330;2022-07-23T00:08:34;14.00;99.90
3912;DHT22;1971;51.778;10.330;2022-07-23T00:11:13;14.00;99.90
3912;DHT22;1971;51.778;10.330;2022-07-23T00:13:56;14.00;99.90
3912;DHT22;1971;51.778;10.330;2022-07-23T00:16:32;14.00;99.90
3912;DHT22;1971;51.778;10.330;2022-07-23T00:19:14;14.20;99.90
3912;DHT22;1971;51.778;10.330;2022-07-23T00:21:50;14.40;99.90
3912;DHT22;1971;51.778;10.330;2022-07-23T00:24:33;14.40;99.90
3912;DHT22;1971;51.778;10.330;2022-07-23T00:27:12;14.50;99.90
3912;DHT22;1971;51.778;10.330;2022-07-23T00:29:55;14.40;99.90
3912;DHT22;1971;51.778;10.330;2022-07-23T00:32:31;14.30;99.90
3912;DHT22;1971;51.778;10.330;2022-07-23T00:35:13;14.40;99.90
3912;DHT22;1971;51.778;10.330;2022-07-23T00:37:50;14.40;99.90
3912;DHT22;1971;51.778;10.330;2022-07-23T00:40:32;14.60;99.90
3912;DHT22;1971;51.778;10.330;2022-07-23T00:43:12;14.60;99.90
3912;DHT22;1971;51.778;10.330;2022-07-23T00:45:54;14.30;99.90
3912;DHT22;1971;51.778;10.330;2022-07-23T00:48:31;14.40;99.90
3912;DHT22;1971;51.778;10.330;2022-07-23T00:51:07;14.50;99.90
3912;DHT22;1971;51.778;10.330;2022-07-23T00:53:49;14.50;99.90
3912;DHT22;1971;51.778;10.330;2022-07-23T00:56:25;14.50;99.90
3912;DHT22;1971;51.778;10.330;2022-07-23T00:59:10;14.60;99.90
3912;DHT22;1971;51.778;10.330;2022-07-23T01:01:46;14.60;99.90
3912;DHT22;1971;51.778;10.330;2022-07-23T01:04:28;14.40;99.90
3912;DHT22;1971;51.778;10.330;2022-07-23T01:07:04;14.50;99.90
3912;DHT22;1971;51.778;10.330;2022-07-23T01:09:47;14.60;99.90
3912;DHT22;1971;51.778;10.330;2022-07-23T01:12:23;14.60;99.90
3912;DHT22;1971;51.778;10.330;2022-07-23T01:15:09;14.60;99.90
3912;DHT22;1971;51.778;10.330;2022-07-23T01:17:45;14.70;99.90
3912;DHT22;1971;51.778;10.330;2022-07-23T01:20:27;14.60;99.90
3912;DHT22;1971;51.778;10.330;2022-07-23T01:23:06;14.60;99.90
3912;DHT22;1971;51.778;10.330;2022-07-23T01:25:48;14.60;99.90
3912;DHT22;1971;51.778;10.330;2022-07-23T01:28:25;14.60;99.90
3912;DHT22;1971;51.778;10.330;2022-07-23T01:31:07;14.70;99.90
3912;DHT22;1971;51.778;10.330;2022-07-23T01:33:44;14.70;99.90
3912;DHT22;1971;51.778;10.330;2022-07-23T01:36:24;14.30;99.90
3912;DHT22;1971;51.778;10.330;2022-07-23T01:39:09;14.30;99.90
3912;DHT22;1971;51.778;10.330;2022-07-23T01:41:45;14.30;99.90
3912;DHT22;1971;51.778;10.330;2022-07-23T01:44:27;14.30;99.90
3912;DHT22;1971;51.778;10.330;2022-07-23T01:47:03;14.20;99.90
3912;DHT22;1971;51.778;10.330;2022-07-23T01:49:45;14.20;99.90
3912;DHT22;1971;51.778;10.330;2022-07-23T01:52:21;14.10;99.90
3912;DHT22;1971;51.778;10.330;2022-07-23T01:55:07;14.00;99.90
3912;DHT22;1971;51.778;10.330;2022-07-23T01:57:51;14.10;99.90
3912;DHT22;1971;51.778;10.330;2022-07-23T02:00:33;14.20;99.90
3912;DHT22;1971;51.778;10.330;2022-07-23T02:03:10;14.20;99.90
3912;DHT22;1971;51.778;10.330;2022-07-23T02:05:52;14.30;99.90
3912;DHT22;1971;51.778;10.330;2022-07-23T02:08:29;14.40;99.90
3912;DHT22;1971;51.778;10.330;2022-07-23T02:11:14;14.30;99.90
3912;DHT22;1971;51.778;10.330;2022-07-23T02:13:50;14.20;99.90
3912;DHT22;1971;51.778;10.330;2022-07-23T02:16:26;14.20;99.90
3912;DHT22;1971;51.778;10.330;2022-07-23T02:19:08;14.30;99.90
3912;DHT22;1971;51.778;10.330;2022-07-23T02:21:44;14.20;99.90
3912;DHT22;1971;51.778;10.330;2022-07-23T02:24:26;14.30;99.90
3912;DHT22;1971;51.778;10.330;2022-07-23T02:27:05;14.20;99.90
3912;DHT22;1971;51.778;10.330;2022-07-23T02:29:47;14.30;99.90
3912;DHT22;1971;51.778;10.330;2022-07-23T02:32:23;14.30;99.90
3912;DHT22;1971;51.778;10.330;2022-07-23T02:35:06;14.30;99.90
3912;DHT22;1971;51.778;10.330;2022-07-23T02:37:42;14.30;99.90
3912;DHT22;1971;51.778;10.330;2022-07-23T02:40:24;14.40;99.90
3912;DHT22;1971;51.778;10.330;2022-07-23T02:43:03;14.40;99.90
3912;DHT22;1971;51.778;10.330;2022-07-23T02:45:45;14.60;99.90
3912;DHT22;1971;51.778;10.330;2022-07-23T02:48:21;14.60;99.90
3912;DHT22;1971;51.778;10.330;2022-07-23T02:51:03;14.40;99.90
3912;DHT22;1971;51.778;10.330;2022-07-23T02:53:47;14.40;99.90
3912;DHT22;1971;51.778;10.330;2022-07-23T02:56:29;14.50;99.90
3912;DHT22;1971;51.778;10.330;2022-07-23T02:59:09;14.50;99.90
3912;DHT22;1971;51.778;10.330;2022-07-23T03:01:45;14.40;99.90
3912;DHT22;1971;51.778;10.330;2022-07-23T03:04:27;14.30;99.90
3912;DHT22;1971;51.778;10.330;2022-07-23T03:07:03;14.20;99.90
3912;DHT22;1971;51.778;10.330;2022-07-23T03:09:45;14.20;99.90
3912;DHT22;1971;51.778;10.330;2022-07-23T03:12:21;14.30;99.90
3912;DHT22;1971;51.778;10.330;2022-07-23T03:15:07;14.40;99.90
3912;DHT22;1971;51.778;10.330;2022-07-23T03:17:44;14.30;99.90
3912;DHT22;1971;51.778;10.330;2022-07-23T03:20:26;14.30;99.90
3912;DHT22;1971;51.778;10.330;2022-07-23T03:23:02;14.40;99.90
3912;DHT22;1971;51.778;10.330;2022-07-23T03:25:44;14.40;99.90
3912;DHT22;1971;51.778;10.330;2022-07-23T03:28:26;14.40;99.90
3912;DHT22;1971;51.778;10.330;2022-07-23T03:31:11;14.40;99.90
3912;DHT22;1971;51.778;10.330;2022-07-23T03:33:47;14.50;99.90
3912;DHT22;1971;51.778;10.330;2022-07-23T03:36:23;14.60;99.90
3912;DHT22;1971;51.778;10.330;2022-07-23T03:39:05;14.70;99.90
3912;DHT22;1971;51.778;10.330;2022-07-23T03:41:46;14.50;99.90
3912;DHT22;1971;51.778;10.330;2022-07-23T03:44:28;14.50;99.90
3912;DHT22;1971;51.778;10.330;2022-07-23T03:47:07;14.40;99.90
3912;DHT22;1971;51.778;10.330;2022-07-23T03:49:50;14.50;99.90
3912;DHT22;1971;51.778;10.330;2022-07-23T03:52:26;14.40;99.90
3912;DHT22;1971;51.778;10.330;2022-07-23T03:55:08;14.50;99.90
3912;DHT22;1971;51.778;10.330;2022-07-23T03:57:45;14.50;99.90
3912;DHT22;1971;51.778;10.330;2022-07-23T04:00:27;14.40;99.90
3912;DHT22;1971;51.778;10.330;2022-07-23T04:03:07;14.30;99.90
3912;DHT22;1971;51.778;10.330;2022-07-23T04:05:49;14.30;99.90
3912;DHT22;1971;51.778;10.330;2022-07-23T04:08:25;14.30;99.90
3912;DHT22;1971;51.778;10.330;2022-07-23T04:11:07;14.30;99.90
3912;DHT22;1971;51.778;10.330;2022-07-23T04:13:43;14.20;99.90
3912;DHT22;1971;51.778;10.330;2022-07-23T04:16:25;14.20;99.90
3912;DHT22;1971;51.778;10.330;2022-07-23T04:19:05;14.20;99.90
3912;DHT22;1971;51.778;10.330;2022-07-23T04:21:47;14.30;99.90
3912;DHT22;1971;51.778;10.330;2022-07-23T04:24:24;14.30;99.90
3912;DHT22;1971;51.778;10.330;2022-07-23T04:27:01;14.30;99.90
3912;DHT22;1971;51.778;10.330;2022-07-23T04:29:43;14.30;99.90
3912;DHT22;1971;51.778;10.330;2022-07-23T04:32:19;14.20;99.90
3912;DHT22;1971;51.778;10.330;2022-07-23T04:35:04;14.30;99.90
3912;DHT22;1971;51.778;10.330;2022-07-23T04:37:40;14.30;99.90
3912;DHT22;1971;51.778;10.330;2022-07-23T04:40:22;14.40;99.90
3912;DHT22;1971;51.778;10.330;2022-07-23T04:42:58;14.40;99.90
3912;DHT22;1971;51.778;10.330;2022-07-23T04:45:40;14.30;99.90
3912;DHT22;1971;51.778;10.330;2022-07-23T04:48:20;14.30;99.90
3912;DHT22;1971;51.778;10.330;2022-07-23T04:51:05;14.20;99.90
3912;DHT22;1971;51.778;10.330;2022-07-23T04:53:42;14.10;99.90
3912;DHT22;1971;51.778;10.330;2022-07-23T04:56:23;14.10;99.90
3912;DHT22;1971;51.778;10.330;2022-07-23T04:59:00;14.10;99.90
3912;DHT22;1971;51.778;10.330;2022-07-23T05:01:42;14.20;99.90
3912;DHT22;1971;51.778;10.330;2022-07-23T05:04:19;14.20;99.90
3912;DHT22;1971;51.778;10.330;2022-07-23T05:06:58;14.10;99.90
3912;DHT22;1971;51.778;10.330;2022-07-23T05:09:40;14.20;99.90
3912;DHT22;1971;51.778;10.330;2022-07-23T05:12:16;14.20;99.90
3912;DHT22;1971;51.778;10.330;2022-07-23T05:14:59;14.40;99.90
3912;DHT22;1971;51.778;10.330;2022-07-23T05:17:35;14.40;99.90
3912;DHT22;1971;51.778;10.330;2022-07-23T05:20:17;14.40;99.90
3912;DHT22;1971;51.778;10.330;2022-07-23T05:22:56;14.50;99.90
3912;DHT22;1971;51.778;10.330;2022-07-23T05:25:39;14.70;99.90
3912;DHT22;1971;51.778;10.330;2022-07-23T05:28:15;14.90;99.90
3912;DHT22;1971;51.778;10.330;2022-07-23T05:30:57;15.00;99.90
3912;DHT22;1971;51.778;10.330;2022-07-23T05:33:34;15.10;95.60
3912;DHT22;1971;51.778;10.330;2022-07-23T05:36:16;15.30;84.90
3912;DHT22;1971;51.778;10.330;2022-07-23T05:38:55;15.50;65.10
3912;DHT22;1971;51.778;10.330;2022-07-23T05:41:37;15.70;47.60
3912;DHT22;1971;51.778;10.330;2022-07-23T05:44:15;15.80;34.20
3912;DHT22;1971;51.778;10.330;2022-07-23T05:46:57;15.90;43.60
3912;DHT22;1971;51.778;10.330;2022-07-23T05:49:39;15.90;9.80
3912;DHT22;1971;51.778;10.330;2022-07-23T05:52:15;15.90;10.40
3912;DHT22;1971;51.778;10.330;2022-07-23T05:55:01;15.80;1.00
3912;DHT22;1971;51.778;10.330;2022-07-23T05:57:37;15.90;6.50
3912;DHT22;1971;51.778;10.330;2022-07-23T06:00:19;15.90;1.00
3912;DHT22;1971;51.778;10.330;2022-07-23T06:02:55;15.90;1.00
3912;DHT22;1971;51.778;10.330;2022-07-23T06:05:38;15.90;1.00
3912;DHT22;1971;51.778;10.330;2022-07-23T06:08:14;16.00;1.00
3912;DHT22;1971;51.778;10.330;2022-07-23T06:10:59;16.00;1.00
3912;DHT22;1971;51.778;10.330;2022-07-23T06:13:35;16.00;1.00
3912;DHT22;1971;51.778;10.330;2022-07-23T06:16:17;16.10;1.00
3912;DHT22;1971;51.778;10.330;2022-07-23T06:18:53;16.10;1.00
3912;DHT22;1971;51.778;10.330;2022-07-23T06:21:35;16.20;1.00
3912;DHT22;1971;51.778;10.330;2022-07-23T06:24:20;16.40;1.00
3912;DHT22;1971;51.778;10.330;2022-07-23T06:27:05;16.40;1.00
3912;DHT22;1971;51.778;10.330;2022-07-23T06:29:41;16.50;1.00
3912;DHT22;1971;51.778;10.330;2022-07-23T06:32:17;16.80;1.00
3912;DHT22;1971;51.778;10.330;2022-07-23T06:34:59;17.00;1.00
3912;DHT22;1971;51.778;10.330;2022-07-23T06:37:36;17.20;1.00
3912;DHT22;1971;51.778;10.330;2022-07-23T06:40:18;17.30;1.00
3912;DHT22;1971;51.778;10.330;2022-07-23T06:42:57;17.20;1.00
3912;DHT22;1971;51.778;10.330;2022-07-23T06:45:39;17.60;1.00
3912;DHT22;1971;51.778;10.330;2022-07-23T06:48:15;17.80;1.00
3912;DHT22;1971;51.778;10.330;2022-07-23T06:50:57;17.60;1.00
3912;DHT22;1971;51.778;10.330;2022-07-23T06:53:33;17.30;1.00
3912;DHT22;1971;51.778;10.330;2022-07-23T06:56:15;17.40;1.00
3912;DHT22;1971;51.778;10.330;2022-07-23T06:58:54;17.60;1.00
3912;DHT22;1971;51.778;10.330;2022-07-23T07:01:36;17.70;1.00
3912;DHT22;1971;51.778;10.330;2022-07-23T07:04:12;17.80;1.00
3912;DHT22;1971;51.778;10.330;2022-07-23T07:06:54;17.60;1.00
3912;DHT22;1971;51.778;10.330;2022-07-23T07:09:30;17.70;1.00
3912;DHT22;1971;51.778;10.330;2022-07-23T07:12:12;17.70;1.00
3912;DHT22;1971;51.778;10.330;2022-07-23T07:14:52;17.90;1.00
3912;DHT22;1971;51.778;10.330;2022-07-23T07:17:34;17.90;1.00
3912;DHT22;1971;51.778;10.330;2022-07-23T07:20:11;17.80;1.00
3912;DHT22;1971;51.778;10.330;2022-07-23T07:22:47;18.00;1.00
3912;DHT22;1971;51.778;10.330;2022-07-23T07:25:30;18.40;1.00
3912;DHT22;1971;51.778;10.330;2022-07-23T07:28:06;18.50;1.00
3912;DHT22;1971;51.778;10.330;2022-07-23T07:30:51;18.60;1.00
3912;DHT22;1971;51.778;10.330;2022-07-23T07:33:27;18.60;1.00
3912;DHT22;1971;51.778;10.330;2022-07-23T07:36:09;18.60;1.00
3912;DHT22;1971;51.778;10.330;2022-07-23T07:38:52;18.80;1.00
3912;DHT22;1971;51.778;10.330;2022-07-23T07:41:34;18.70;1.00
3912;DHT22;1971;51.778;10.330;2022-07-23T07:44:12;18.70;1.00
3912;DHT22;1971;51.778;10.330;2022-07-23T07:46:58;18.90;1.00
3912;DHT22;1971;51.778;10.330;2022-07-23T07:49:35;19.10;1.00
3912;DHT22;1971;51.778;10.330;2022-07-23T07:52:16;18.50;1.00
3912;DHT22;1971;51.778;10.330;2022-07-23T07:54:52;18.90;1.00
3912;DHT22;1971;51.778;10.330;2022-07-23T07:57:36;18.80;1.00
3912;DHT22;1971;51.778;10.330;2022-07-23T08:00:13;19.00;1.00
3912;DHT22;1971;51.778;10.330;2022-07-23T08:02:58;19.20;1.00
3912;DHT22;1971;51.778;10.330;2022-07-23T08:05:35;19.30;1.00
3912;DHT22;1971;51.778;10.330;2022-07-23T08:08:11;19.40;1.00
3912;DHT22;1971;51.778;10.330;2022-07-23T08:10:54;18.80;1.00
3912;DHT22;1971;51.778;10.330;2022-07-23T08:13:30;18.50;1.00
3912;DHT22;1971;51.778;10.330;2022-07-23T08:16:12;18.80;1.00
3912;DHT22;1971;51.778;10.330;2022-07-23T08:18:52;19.00;1.00
3912;DHT22;1971;51.778;10.330;2022-07-23T08:21:34;18.20;1.00
3912;DHT22;1971;51.778;10.330;2022-07-23T08:24:12;18.00;1.00
3912;DHT22;1971;51.778;10.330;2022-07-23T08:26:54;18.00;1.00
3912;DHT22;1971;51.778;10.330;2022-07-23T08:29:36;18.00;1.00
3912;DHT22;1971;51.778;10.330;2022-07-23T08:32:12;18.30;1.00
3912;DHT22;1971;51.778;10.330;2022-07-23T08:35:05;18.40;1.00
3912;DHT22;1971;51.778;10.330;2022-07-23T08:37:47;19.10;1.00
3912;DHT22;1971;51.778;10.330;2022-07-23T08:40:26;18.50;1.00
3912;DHT22;1971;51.778;10.330;2022-07-23T08:43:10;18.60;1.00
3912;DHT22;1971;51.778;10.330;2022-07-23T08:45:49;18.40;1.00
3912;DHT22;1971;51.778;10.330;2022-07-23T08:48:27;18.70;1.00
3912;DHT22;1971;51.778;10.330;2022-07-23T08:51:12;19.00;1.00
3912;DHT22;1971;51.778;10.330;2022-07-23T08:53:49;19.30;1.00
3912;DHT22;1971;51.778;10.330;2022-07-23T08:56:32;19.50;1.00
3912;DHT22;1971;51.778;10.330;2022-07-23T08:59:08;19.00;1.00
3912;DHT22;1971;51.778;10.330;2022-07-23T09:01:52;18.00;1.00
3912;DHT22;1971;51.778;10.330;2022-07-23T09:04:31;18.00;1.00
3912;DHT22;1971;51.778;10.330;2022-07-23T09:07:15;18.70;1.00
3912;DHT22;1971;51.778;10.330;2022-07-23T09:10:06;19.10;1.00
3912;DHT22;1971;51.778;10.330;2022-07-23T09:12:42;18.10;1.00
3912;DHT22;1971;51.778;10.330;2022-07-23T09:15:18;17.50;1.00
3912;DHT22;1971;51.778;10.330;2022-07-23T09:18:00;17.60;1.00
3912;DHT22;1971;51.778;10.330;2022-07-23T09:20:37;18.50;1.00
3912;DHT22;1971;51.778;10.330;2022-07-23T09:23:17;18.60;1.00
3912;DHT22;1971;51.778;10.330;2022-07-23T09:26:00;18.40;1.00
3912;DHT22;1971;51.778;10.330;2022-07-23T09:28:51;18.50;1.00
3912;DHT22;1971;51.778;10.330;2022-07-23T09:31:43;19.00;1.00
3912;DHT22;1971;51.778;10.330;2022-07-23T09:34:21;18.50;1.00
3912;DHT22;1971;51.778;10.330;2022-07-23T09:37:10;18.70;1.00
3912;DHT22;1971;51.778;10.330;2022-07-23T09:39:50;18.90;1.00
3912;DHT22;1971;51.778;10.330;2022-07-23T09:42:32;18.80;1.00
3912;DHT22;1971;51.778;10.330;2022-07-23T09:45:11;18.90;1.00
3912;DHT22;1971;51.778;10.330;2022-07-23T09:48:10;19.10;1.00
3912;DHT22;1971;51.778;10.330;2022-07-23T09:50:46;19.50;1.00
3912;DHT22;1971;51.778;10.330;2022-07-23T09:53:24;19.20;1.00
3912;DHT22;1971;51.778;10.330;2022-07-23T09:56:12;19.00;1.00
3912;DHT22;1971;51.778;10.330;2022-07-23T09:58:50;18.90;1.00
3912;DHT22;1971;51.778;10.330;2022-07-23T10:01:36;19.10;1.00
3912;DHT22;1971;51.778;10.330;2022-07-23T10:04:13;19.50;1.00
3912;DHT22;1971;51.778;10.330;2022-07-23T10:06:57;20.10;1.00
3912;DHT22;1971;51.778;10.330;2022-07-23T10:09:35;20.10;1.00
3912;DHT22;1971;51.778;10.330;2022-07-23T10:12:20;19.80;1.00
3912;DHT22;1971;51.778;10.330;2022-07-23T10:15:09;19.70;1.00
3912;DHT22;1971;51.778;10.330;2022-07-23T10:17:50;19.70;1.00
3912;DHT22;1971;51.778;10.330;2022-07-23T10:20:27;20.00;1.00
3912;DHT22;1971;51.778;10.330;2022-07-23T10:23:20;19.90;1.00
3912;DHT22;1971;51.778;10.330;2022-07-23T10:26:05;19.90;1.00
3912;DHT22;1971;51.778;10.330;2022-07-23T10:29:06;20.00;1.00
3912;DHT22;1971;51.778;10.330;2022-07-23T10:31:53;19.90;1.00
3912;DHT22;1971;51.778;10.330;2022-07-23T10:34:44;20.30;1.00
3912;DHT22;1971;51.778;10.330;2022-07-23T10:37:28;20.60;1.00
3912;DHT22;1971;51.778;10.330;2022-07-23T10:40:15;20.90;1.00
3912;DHT22;1971;51.778;10.330;2022-07-23T10:42:52;21.10;1.00
3912;DHT22;1971;51.778;10.330;2022-07-23T10:45:33;20.30;1.00
3912;DHT22;1971;51.778;10.330;2022-07-23T10:48:17;20.50;1.00
3912;DHT22;1971;51.778;10.330;2022-07-23T10:51:09;20.90;1.00
3912;DHT22;1971;51.778;10.330;2022-07-23T10:53:54;20.70;1.00
3912;DHT22;1971;51.778;10.330;2022-07-23T10:56:50;20.70;1.00
3912;DHT22;1971;51.778;10.330;2022-07-23T10:59:20;20.20;1.00
3912;DHT22;1971;51.778;10.330;2022-07-23T11:02:22;20.60;1.00
3912;DHT22;1971;51.778;10.330;2022-07-23T11:05:01;20.60;1.00
3912;DHT22;1971;51.778;10.330;2022-07-23T11:08:10;20.30;1.00
3912;DHT22;1971;51.778;10.330;2022-07-23T11:10:50;19.80;1.00
3912;DHT22;1971;51.778;10.330;2022-07-23T11:13:41;20.00;1.00
3912;DHT22;1971;51.778;10.330;2022-07-23T11:16:25;20.20;1.00
3912;DHT22;1971;51.778;10.330;2022-07-23T11:19:08;20.30;1.00
3912;DHT22;1971;51.778;10.330;2022-07-23T11:21:50;19.70;1.00
3912;DHT22;1971;51.778;10.330;2022-07-23T11:24:27;20.10;1.00
3912;DHT22;1971;51.778;10.330;2022-07-23T11:27:09;19.90;1.00
3912;DHT22;1971;51.778;10.330;2022-07-23T11:29:48;20.60;1.00
3912;DHT22;1971;51.778;10.330;2022-07-23T11:32:37;20.50;1.00
3912;DHT22;1971;51.778;10.330;2022-07-23T11:35:36;20.00;1.00
3912;DHT22;1971;51.778;10.330;2022-07-23T11:38:21;19.80;1.00
3912;DHT22;1971;51.778;10.330;2022-07-23T11:40:57;20.70;1.00
3912;DHT22;1971;51.778;10.330;2022-07-23T11:43:39;21.30;1.00
3912;DHT22;1971;51.778;10.330;2022-07-23T11:46:17;21.60;1.00
